Ana Sayfa
METAR-TAF:

METAR-TAF

Havaalanları :

Hartum, Sudan

Enlem: 15-36N, Boylam: 032-33E, yükseklik: 382 m

Güncel hava durumu gözlemi

Rapor saat 06:30 UTC de 36 dakika önce yapıldı.
Rüzgar güneydan 13 kt
Sıcaklık 30°C
Nem 49%
Basınç 1012 hPa
Görüş mesafesi 10 km veya daha fazla
1500 m altında bulut yok ve kümülonimbus yok

METAR: HSSS 250630Z 19013KT CAVOK 30/18 Q1012 NOSIG

Saat: 09:06 (07:06 UTC)

Tahmin

Rapor saat 05:00 UTC de 2 saat ve 6 dakika önce yapıldı.
Ayın 25'si saat 06 UTC'den ayın 26'si saat 12 UTC'ye kadar geçerli Tahmin
Rüzgar güneydan 8 kt ve 18 kt'a kadar ani rüzgarlar
Görüş mesafesi 10 km veya daha fazla
1500 m altında bulut yok ve kümülonimbus yok
Dönüşüyor
ayın 25'si saat 10 UTC'den ayın 25'si saat 12 UTC'ye kadar
Görüş mesafesi 10 km veya daha fazla
4000 ft yükseklikte az bulutlu
14000 ft yükseklikte parçalı bulutlu

TAF: HSSS 250500Z 2506/2612 180008G18KT CAVOK BECMG 2510/2512 9999 FEW040 SCT140

4.000'den fazla havaalanı için hava durumu gözlemleri ve tahminleri (METAR ve TAF raporları).

Kullanılabilir istasyonlar harita üzerinde sarı ve kırmızı noktalarla gösterilir.

İstasyonun adını görmek için fareyi noktanın üzerinde gezdirin.

Sonrasında hava gözlem ve tahminlerini görmek için tıklayın.

Haritayı değiştirmek için: yaklaştırmak için siyah artı işaretli yeşil düğmeye ve uzaklaştırmak için de eksi işaretli düğmeye hızla tıklayın; bitişik haritalar için yeşil okları kullanın.


METAR-TAF: